Time,TemperatureF,DewpointF,PressureIn,WindDirection,WindDirectionDegrees,WindSpeedMPH,WindSpeedGustMPH,Humidity,HourlyPrecipIn,Conditions,Clouds,dailyrainin,SolarRadiationWatts/m^2,SoftwareType,DateUTC
2013-11-06 00:04:00,45.4,40.0,29.49,North,360,0.0,1.0,82,0.00,,,0.00,0,weatherlink.com 1.10,2013-11-05 23:04:00,
2013-11-06 00:19:00,45.3,40.0,29.49,West,259,0.0,1.0,82,0.00,,,0.00,0,weatherlink.com 1.10,2013-11-05 23:19:00,
2013-11-06 00:34:00,45.0,40.0,29.49,NW,319,0.0,4.0,81,0.00,,,0.00,0,weatherlink.com 1.10,2013-11-05 23:34:00,
2013-11-06 00:49:00,44.8,39.0,29.49,NW,308,1.0,3.0,81,0.00,,,0.00,0,weatherlink.com 1.10,2013-11-05 23:49:00,
2013-11-06 01:04:00,44.7,39.0,29.49,WNW,293,0.0,4.0,81,0.00,,,0.00,0,weatherlink.com 1.10,2013-11-06 00:04:00,
2013-11-06 01:19:00,44.7,39.0,29.50,North,360,0.0,4.0,80,0.00,,,0.00,0,weatherlink.com 1.10,2013-11-06 00:19:00,
2013-11-06 01:34:00,44.6,39.0,29.50,North,351,0.0,1.0,80,0.00,,,0.00,0,weatherlink.com 1.10,2013-11-06 00:34:00,
2013-11-06 01:49:00,44.3,39.0,29.50,North,355,0.0,0.0,80,0.00,,,0.00,0,weatherlink.com 1.10,2013-11-06 00:49:00,
2013-11-06 02:04:00,44.0,38.0,29.50,WNW,284,1.0,2.0,80,0.00,,,0.00,0,weatherlink.com 1.10,2013-11-06 01:04:00,
2013-11-06 02:19:00,43.9,38.0,29.50,NW,319,0.0,2.0,81,0.00,,,0.00,0,weatherlink.com 1.10,2013-11-06 01:19:00,
2013-11-06 02:34:00,43.7,38.0,29.50,WSW,255,0.0,1.0,81,0.00,,,0.00,0,weatherlink.com 1.10,2013-11-06 01:34:00,
2013-11-06 02:49:00,43.2,37.0,29.51,North,360,0.0,0.0,80,0.00,,,0.00,0,weatherlink.com 1.10,2013-11-06 01:49:00,
2013-11-06 03:04:00,42.4,37.0,29.52,WSW,254,0.0,0.0,80,0.00,,,0.00,0,weatherlink.com 1.10,2013-11-06 02:04:00,
2013-11-06 03:19:00,41.6,36.0,29.53,WSW,254,0.0,0.0,81,0.00,,,0.00,0,weatherlink.com 1.10,2013-11-06 02:19:00,
2013-11-06 03:34:00,40.7,36.0,29.53,WSW,252,0.0,0.0,82,0.00,,,0.00,0,weatherlink.com 1.10,2013-11-06 02:34:00,
2013-11-06 03:49:00,40.1,35.0,29.54,WSW,252,0.0,1.0,83,0.00,,,0.00,0,weatherlink.com 1.10,2013-11-06 02:49:00,
2013-11-06 04:04:00,39.7,35.0,29.54,WSW,254,0.0,1.0,84,0.00,,,0.00,0,weatherlink.com 1.10,2013-11-06 03:04:00,
2013-11-06 04:19:00,39.6,35.0,29.55,WSW,254,0.0,0.0,84,0.00,,,0.00,0,weatherlink.com 1.10,2013-11-06 03:19:00,
2013-11-06 04:34:00,39.3,35.0,29.55,WSW,254,0.0,1.0,85,0.00,,,0.00,0,weatherlink.com 1.10,2013-11-06 03:34:00,
2013-11-06 04:49:00,39.0,35.0,29.56,North,360,0.0,1.0,85,0.00,,,0.00,0,weatherlink.com 1.10,2013-11-06 03:49:00,
2013-11-06 05:04:00,38.8,35.0,29.56,WSW,254,0.0,0.0,86,0.00,,,0.00,0,weatherlink.com 1.10,2013-11-06 04:04:00,
2013-11-06 05:19:00,38.6,35.0,29.57,WSW,255,0.0,1.0,86,0.00,,,0.00,0,weatherlink.com 1.10,2013-11-06 04:19:00,
2013-11-06 05:34:00,38.5,35.0,29.57,WSW,253,0.0,0.0,86,0.00,,,0.00,0,weatherlink.com 1.10,2013-11-06 04:34:00,
2013-11-06 05:49:00,38.5,35.0,29.58,WSW,253,0.0,0.0,87,0.00,,,0.00,0,weatherlink.com 1.10,2013-11-06 04:49:00,
2013-11-06 06:04:00,38.6,35.0,29.58,WSW,254,0.0,1.0,87,0.00,,,0.00,0,weatherlink.com 1.10,2013-11-06 05:04:00,
2013-11-06 06:19:00,38.8,35.0,29.59,WSW,254,0.0,0.0,87,0.00,,,0.00,0,weatherlink.com 1.10,2013-11-06 05:19:00,
2013-11-06 06:49:00,39.3,36.0,29.60,WSW,252,0.0,1.0,88,0.00,,,0.00,14,weatherlink.com 1.10,2013-11-06 05:49:00,
2013-11-06 07:05:00,39.7,37.0,29.60,WSW,252,0.0,2.0,88,0.00,,,0.00,35,weatherlink.com 1.10,2013-11-06 06:05:00,
2013-11-06 07:20:00,40.8,38.0,29.61,WSW,242,2.0,3.0,88,0.00,,,0.00,46,weatherlink.com 1.10,2013-11-06 06:20:00,
2013-11-06 07:35:00,42.7,38.0,29.61,SW,232,2.0,5.0,83,0.00,,,0.00,30,weatherlink.com 1.10,2013-11-06 06:35:00,
2013-11-06 07:50:00,43.5,38.0,29.61,North,360,0.0,5.0,80,0.00,,,0.00,19,weatherlink.com 1.10,2013-11-06 06:50:00,
2013-11-06 08:05:00,44.6,38.0,29.61,SW,221,4.0,5.0,79,0.00,,,0.00,76,weatherlink.com 1.10,2013-11-06 07:05:00,
2013-11-06 08:20:00,45.3,39.0,29.61,WSW,239,0.0,4.0,77,0.00,,,0.00,81,weatherlink.com 1.10,2013-11-06 07:20:00,
2013-11-06 08:35:00,46.6,39.0,29.62,North,360,3.0,4.0,75,0.00,,,0.00,139,weatherlink.com 1.10,2013-11-06 07:35:00,
2013-11-06 08:50:00,53.4,43.0,29.62,SW,227,0.0,4.0,68,0.00,,,0.00,316,weatherlink.com 1.10,2013-11-06 07:50:00,
2013-11-06 09:35:00,56.7,42.0,29.63,WSW,237,0.0,2.0,58,0.00,,,0.00,378,weatherlink.com 1.10,2013-11-06 08:35:00,
2013-11-06 10:05:00,55.1,42.0,29.63,NE,44,1.0,4.0,62,0.00,,,0.00,227,weatherlink.com 1.10,2013-11-06 09:05:00,
2013-11-06 10:35:00,56.1,43.0,29.63,SW,225,1.0,6.0,63,0.00,,,0.00,459,weatherlink.com 1.10,2013-11-06 09:35:00,
2013-11-06 10:50:00,61.3,44.0,29.62,ENE,68,2.0,9.0,54,0.00,,,0.00,464,weatherlink.com 1.10,2013-11-06 09:50:00,
2013-11-06 11:05:00,60.8,44.0,29.64,North,360,1.0,8.0,54,0.00,,,0.00,591,weatherlink.com 1.10,2013-11-06 10:05:00,
2013-11-06 11:20:00,58.1,43.0,29.63,NNE,26,0.0,10.0,57,0.00,,,0.00,125,weatherlink.com 1.10,2013-11-06 10:20:00,
2013-11-06 11:35:00,58.9,43.0,29.63,WSW,238,0.0,9.0,57,0.00,,,0.00,352,weatherlink.com 1.10,2013-11-06 10:35:00,
2013-11-06 11:50:00,62.3,43.0,29.63,WSW,241,0.0,6.0,50,0.00,,,0.00,130,weatherlink.com 1.10,2013-11-06 10:50:00,
2013-11-06 12:05:00,59.8,42.0,29.64,North,5,0.0,7.0,52,0.00,,,0.00,478,weatherlink.com 1.10,2013-11-06 11:05:00,
2013-11-06 12:20:00,62.0,41.0,29.64,WSW,246,7.0,9.0,46,0.00,,,0.00,563,weatherlink.com 1.10,2013-11-06 11:20:00,
2013-11-06 12:35:00,64.1,42.0,29.64,North,360,0.0,4.0,44,0.00,,,0.00,519,weatherlink.com 1.10,2013-11-06 11:35:00,
2013-11-06 12:51:00,59.8,41.0,29.65,NW,313,2.0,8.0,50,0.00,,,0.00,162,weatherlink.com 1.10,2013-11-06 11:51:00,
2013-11-06 13:06:00,59.2,40.0,29.66,North,360,1.0,8.0,50,0.00,,,0.00,116,weatherlink.com 1.10,2013-11-06 12:06:00,
2013-11-06 13:21:00,59.3,40.0,29.66,SW,229,0.0,8.0,50,0.00,,,0.00,123,weatherlink.com 1.10,2013-11-06 12:21:00,
2013-11-06 13:36:00,57.6,41.0,29.65,SSW,212,4.0,4.0,54,0.00,,,0.00,76,weatherlink.com 1.10,2013-11-06 12:36:00,
2013-11-06 13:51:00,56.2,41.0,29.67,SW,225,0.0,3.0,57,0.00,,,0.00,47,weatherlink.com 1.10,2013-11-06 12:51:00,
2013-11-06 14:06:00,55.8,41.0,29.67,North,5,0.0,5.0,59,0.00,,,0.00,83,weatherlink.com 1.10,2013-11-06 13:06:00,
2013-11-06 14:21:00,55.5,42.0,29.68,NNW,348,1.0,6.0,60,0.00,,,0.00,77,weatherlink.com 1.10,2013-11-06 13:21:00,
2013-11-06 14:36:00,55.6,41.0,29.68,SW,219,0.0,3.0,59,0.00,,,0.00,74,weatherlink.com 1.10,2013-11-06 13:36:00,
2013-11-06 14:51:00,55.6,41.0,29.68,WSW,239,0.0,5.0,59,0.00,,,0.00,86,weatherlink.com 1.10,2013-11-06 13:51:00,
2013-11-06 15:06:00,55.5,41.0,29.68,North,360,0.0,3.0,59,0.00,,,0.00,91,weatherlink.com 1.10,2013-11-06 14:06:00,
2013-11-06 15:21:00,55.4,42.0,29.68,SW,222,1.0,7.0,61,0.00,,,0.00,32,weatherlink.com 1.10,2013-11-06 14:21:00,
2013-11-06 15:36:00,54.9,42.0,29.69,NW,326,2.0,2.0,62,0.00,,,0.00,40,weatherlink.com 1.10,2013-11-06 14:36:00,
2013-11-06 15:51:00,54.4,41.0,29.69,SSW,197,0.0,5.0,62,0.00,,,0.00,5,weatherlink.com 1.10,2013-11-06 14:51:00,
2013-11-06 16:06:00,54.0,41.0,29.70,North,360,0.0,5.0,62,0.00,,,0.00,0,weatherlink.com 1.10,2013-11-06 15:06:00,
2013-11-06 16:21:00,53.2,41.0,29.70,NW,323,0.0,4.0,63,0.00,,,0.00,0,weatherlink.com 1.10,2013-11-06 15:21:00,
2013-11-06 16:36:00,52.7,41.0,29.71,NNE,12,1.0,4.0,64,0.00,,,0.00,0,weatherlink.com 1.10,2013-11-06 15:36:00,
2013-11-06 16:51:00,52.3,41.0,29.73,West,272,2.0,6.0,66,0.00,,,0.00,0,weatherlink.com 1.10,2013-11-06 15:51:00,
2013-11-06 17:06:00,51.5,43.0,29.73,WSW,246,1.0,5.0,72,0.00,,,0.00,0,weatherlink.com 1.10,2013-11-06 16:06:00,
2013-11-06 17:21:00,50.4,42.0,29.74,NE,38,0.0,2.0,74,0.00,,,0.00,0,weatherlink.com 1.10,2013-11-06 16:21:00,
2013-11-06 17:36:00,49.8,42.0,29.74,SW,236,1.0,1.0,75,0.00,,,0.00,0,weatherlink.com 1.10,2013-11-06 16:36:00,
2013-11-06 17:51:00,49.3,42.0,29.74,NNE,13,0.0,3.0,75,0.00,,,0.00,0,weatherlink.com 1.10,2013-11-06 16:51:00,
2013-11-06 18:06:00,48.6,41.0,29.75,WSW,249,0.0,1.0,75,0.00,,,0.00,0,weatherlink.com 1.10,2013-11-06 17:06:00,
2013-11-06 18:21:00,48.2,41.0,29.76,NW,321,0.0,2.0,76,0.00,,,0.00,0,weatherlink.com 1.10,2013-11-06 17:21:00,
2013-11-06 18:36:00,48.1,41.0,29.76,North,360,1.0,2.0,76,0.00,,,0.00,0,weatherlink.com 1.10,2013-11-06 17:36:00,
2013-11-06 18:51:00,48.6,41.0,29.77,West,277,0.0,3.0,76,0.00,,,0.00,0,weatherlink.com 1.10,2013-11-06 17:51:00,
2013-11-06 19:06:00,49.3,42.0,29.77,SW,220,0.0,4.0,75,0.00,,,0.00,0,weatherlink.com 1.10,2013-11-06 18:06:00,
2013-11-06 19:21:00,50.0,42.0,29.77,WSW,252,0.0,4.0,74,0.00,,,0.00,0,weatherlink.com 1.10,2013-11-06 18:21:00,
2013-11-06 19:36:00,50.1,42.0,29.78,NNW,339,0.0,5.0,73,0.00,,,0.00,0,weatherlink.com 1.10,2013-11-06 18:36:00,
2013-11-06 19:51:00,50.3,42.0,29.77,West,263,0.0,5.0,73,0.00,,,0.00,0,weatherlink.com 1.10,2013-11-06 18:51:00,
2013-11-06 20:06:00,50.3,42.0,29.79,WSW,249,0.0,3.0,74,0.00,,,0.00,0,weatherlink.com 1.10,2013-11-06 19:06:00,
2013-11-06 20:21:00,50.3,42.0,29.79,NNW,336,0.0,2.0,74,0.00,,,0.00,0,weatherlink.com 1.10,2013-11-06 19:21:00,
2013-11-06 20:36:00,50.2,42.0,29.80,NNW,327,0.0,3.0,73,0.00,,,0.00,0,weatherlink.com 1.10,2013-11-06 19:36:00,
2013-11-06 21:06:00,50.0,42.0,29.80,SW,234,0.0,2.0,73,0.00,,,0.00,0,weatherlink.com 1.10,2013-11-06 20:06:00,
2013-11-06 21:21:00,49.9,42.0,29.81,NNW,331,0.0,2.0,73,0.00,,,0.00,0,weatherlink.com 1.10,2013-11-06 20:21:00,
2013-11-06 21:36:00,49.7,41.0,29.82,WNW,298,0.0,0.0,73,0.00,,,0.00,0,weatherlink.com 1.10,2013-11-06 20:36:00,
2013-11-06 21:51:00,49.7,41.0,29.82,WSW,245,0.0,1.0,73,0.00,,,0.00,0,weatherlink.com 1.10,2013-11-06 20:51:00,
2013-11-06 22:06:00,49.7,41.0,29.82,WSW,247,0.0,1.0,73,0.00,,,0.00,0,weatherlink.com 1.10,2013-11-06 21:06:00,
2013-11-06 22:21:00,49.8,41.0,29.83,NNW,337,0.0,1.0,73,0.00,,,0.00,0,weatherlink.com 1.10,2013-11-06 21:21:00,
2013-11-06 22:36:00,49.8,41.0,29.83,SSW,210,0.0,1.0,73,0.00,,,0.00,0,weatherlink.com 1.10,2013-11-06 21:36:00,
2013-11-06 22:51:00,49.6,41.0,29.84,SW,217,0.0,1.0,73,0.00,,,0.00,0,weatherlink.com 1.10,2013-11-06 21:51:00,
2013-11-06 23:06:00,49.4,41.0,29.84,SSW,211,0.0,0.0,74,0.00,,,0.00,0,weatherlink.com 1.10,2013-11-06 22:06:00,
2013-11-06 23:21:00,49.2,41.0,29.84,WSW,244,0.0,3.0,74,0.00,,,0.00,0,weatherlink.com 1.10,2013-11-06 22:21:00,
2013-11-06 23:36:00,49.2,41.0,29.86,WSW,240,1.0,3.0,74,0.00,,,0.00,0,weatherlink.com 1.10,2013-11-06 22:36:00,
2013-11-06 23:51:00,49.3,41.0,29.85,SSW,213,0.0,2.0,74,0.00,,,0.00,0,weatherlink.com 1.10,2013-11-06 22:51:00,